Time;durP1;ratioP1;P1;durP2;ratioP2;P2;SDS_P1;SDS_P2;PMS_P1;PMS_P2;Temp;Humidity;BMP_temperature;BMP_pressure;BME280_temperature;BME280_humidity;BME280_pressure;Samples;Min_cycle;Max_cycle;Signal;HPM_P1;HPM_P2
2021/12/18 00:01:16;;;;;;;18.17;5.63;;;7.50;99.90;;;;;;4963173;28;20138;-61
2021/12/18 00:03:42;;;;;;;12.43;5.38;;;7.50;99.90;;;;;;4921603;29;20047;-61
2021/12/18 00:06:09;;;;;;;18.10;5.90;;;7.50;99.90;;;;;;4938208;29;20128;-61
2021/12/18 00:08:36;;;;;;;22.10;6.28;;;7.50;99.90;;;;;;4948955;29;20577;-61
2021/12/18 00:11:03;;;;;;;11.95;4.68;;;7.50;99.90;;;;;;4949497;29;20122;-61
2021/12/18 00:13:29;;;;;;;16.90;5.00;;;7.50;99.90;;;;;;4948144;29;20485;-61
2021/12/18 00:15:55;;;;;;;16.23;4.93;;;7.50;99.90;;;;;;4949416;29;20137;-60
2021/12/18 00:18:21;;;;;;;14.05;4.78;;;7.50;99.90;;;;;;4948205;29;20051;-61
2021/12/18 00:20:48;;;;;;;11.48;4.85;;;7.40;99.90;;;;;;4949406;28;20039;-61
2021/12/18 00:23:14;;;;;;;14.25;5.70;;;7.40;99.90;;;;;;4932051;29;20055;-61
2021/12/18 00:25:41;;;;;;;28.13;6.13;;;7.40;99.90;;;;;;4931327;29;20425;-61
2021/12/18 00:28:07;;;;;;;15.15;5.20;;;7.40;99.90;;;;;;4950216;28;20117;-61
2021/12/18 00:30:34;;;;;;;15.05;4.75;;;7.40;99.90;;;;;;4949510;28;20043;-61
2021/12/18 00:33:01;;;;;;;14.18;4.57;;;7.40;99.90;;;;;;4949857;28;20078;-61
2021/12/18 00:35:27;;;;;;;14.20;4.90;;;7.40;99.90;;;;;;4930257;29;20913;-61
2021/12/18 00:37:54;;;;;;;31.00;4.90;;;7.40;99.90;;;;;;4948961;28;20399;-61
2021/12/18 00:40:24;;;;;;;27.63;6.07;;;7.40;99.90;;;;;;4948601;28;20517;-61
2021/12/18 00:43:13;;;;;;;22.73;5.20;;;7.30;99.90;;;;;;4947028;29;20463;-61
2021/12/18 00:45:39;;;;;;;28.20;5.45;;;7.30;99.90;;;;;;4932141;29;20516;-61
2021/12/18 00:48:05;;;;;;;23.95;4.82;;;7.30;99.90;;;;;;4948859;29;20043;-60
2021/12/18 00:50:31;;;;;;;24.85;5.38;;;7.30;99.90;;;;;;4964612;28;20054;-60
2021/12/18 00:52:57;;;;;;;22.58;5.32;;;7.20;99.90;;;;;;4950702;28;20502;-60
2021/12/18 00:55:23;;;;;;;19.13;4.97;;;7.20;99.90;;;;;;4947793;29;20050;-60
2021/12/18 00:57:51;;;;;;;19.27;5.78;;;7.10;99.90;;;;;;4929838;29;20161;-61
2021/12/18 01:00:24;;;;;;;23.88;5.45;;;7.10;99.90;;;;;;4948153;29;20047;-61
2021/12/18 01:02:55;;;;;;;24.77;5.20;;;7.10;99.90;;;;;;4936864;29;20055;-61
2021/12/18 01:05:22;;;;;;;19.55;4.85;;;7.10;99.90;;;;;;4933128;29;20478;-61
2021/12/18 01:07:48;;;;;;;27.20;5.32;;;7.10;99.90;;;;;;4950288;28;20051;-57
2021/12/18 01:13:03;;;;;;;30.80;5.22;;;7.10;99.90;;;;;;4930711;29;20047;-57
2021/12/18 01:15:33;;;;;;;19.88;4.60;;;7.10;99.90;;;;;;4933689;29;20051;-60
2021/12/18 01:23:29;;;;;;;7.18;2.70;;;7.00;99.90;;;;;;4950533;28;20492;-61
2021/12/18 01:25:57;;;;;;;14.00;4.03;;;7.00;99.90;;;;;;4950128;28;20090;-61
2021/12/18 01:28:24;;;;;;;9.32;2.90;;;7.00;99.90;;;;;;4929998;29;20059;-61
2021/12/18 01:30:51;;;;;;;10.88;4.25;;;7.00;99.90;;;;;;4948478;29;20082;-60
2021/12/18 01:33:17;;;;;;;10.10;2.95;;;7.00;99.90;;;;;;4950362;29;20047;-60
2021/12/18 01:35:44;;;;;;;13.05;3.45;;;7.00;99.90;;;;;;4965170;28;20422;-60
2021/12/18 01:38:11;;;;;;;11.63;3.17;;;7.00;99.90;;;;;;4950234;28;20069;-56
2021/12/18 01:40:37;;;;;;;6.35;2.90;;;7.00;99.90;;;;;;4947664;29;20056;-57
2021/12/18 01:52:01;;;;;;;8.65;3.42;;;7.00;99.90;;;;;;4917904;29;20223;-57
2021/12/18 01:54:27;;;;;;;12.40;3.28;;;7.00;99.90;;;;;;4942968;29;20055;-57
2021/12/18 01:56:54;;;;;;;9.23;3.08;;;7.00;99.90;;;;;;4949804;29;20165;-56
2021/12/18 01:59:40;;;;;;;11.23;3.30;;;7.00;99.90;;;;;;4966434;28;20086;-56
2021/12/18 02:02:06;;;;;;;6.38;2.83;;;7.00;99.90;;;;;;4951067;29;20514;-57
2021/12/18 02:04:33;;;;;;;9.38;2.92;;;7.00;99.90;;;;;;4952877;28;20059;-57
2021/12/18 02:07:00;;;;;;;9.07;2.95;;;7.00;99.90;;;;;;4951583;29;20051;-56
2021/12/18 02:09:37;;;;;;;10.60;3.45;;;7.00;99.90;;;;;;4934790;29;20054;-56
2021/12/18 02:12:03;;;;;;;9.65;2.67;;;7.10;99.90;;;;;;4950747;28;20063;-57
2021/12/18 02:19:34;;;;;;;11.85;3.47;;;7.00;99.90;;;;;;4951191;29;20521;-57
2021/12/18 02:20:24;;;;;;;13.18;3.83;;;7.00;99.90;;;;;;4950793;29;20016;-57
2021/12/18 02:22:55;;;;;;;9.30;3.40;;;7.00;99.90;;;;;;4934349;29;20491;-57
2021/12/18 02:25:24;;;;;;;8.68;3.45;;;7.10;99.90;;;;;;4932659;29;20542;-57
2021/12/18 02:27:52;;;;;;;7.38;2.85;;;7.10;99.90;;;;;;4933378;29;20574;-57
2021/12/18 02:30:23;;;;;;;10.18;3.08;;;7.00;99.90;;;;;;4933514;29;20043;-56
2021/12/18 02:32:50;;;;;;;8.48;2.85;;;7.10;99.90;;;;;;4951060;29;20458;-57
2021/12/18 02:35:32;;;;;;;10.30;2.90;;;7.10;99.90;;;;;;4934894;29;20074;-57
2021/12/18 02:38:08;;;;;;;16.17;3.28;;;7.00;99.90;;;;;;4947653;29;20158;-56
2021/12/18 02:43:38;;;;;;;10.40;2.55;;;6.90;99.90;;;;;;4952024;28;20494;-57
2021/12/18 02:46:07;;;;;;;14.50;3.20;;;6.80;99.90;;;;;;4934582;29;20589;-57
2021/12/18 02:48:38;;;;;;;11.68;2.40;;;6.80;99.90;;;;;;4950233;29;20051;-57
2021/12/18 02:51:07;;;;;;;11.63;2.60;;;6.70;99.90;;;;;;4950915;28;20058;-57
2021/12/18 02:53:36;;;;;;;9.48;2.60;;;6.80;99.90;;;;;;4950950;28;20062;-53
2021/12/18 02:56:06;;;;;;;5.32;2.10;;;6.70;99.90;;;;;;4951253;28;20058;-56
2021/12/18 02:58:39;;;;;;;5.88;1.80;;;6.80;99.90;;;;;;4950762;29;20394;-57
2021/12/18 03:01:08;;;;;;;8.98;2.60;;;6.70;99.90;;;;;;4950026;28;20051;-56
2021/12/18 03:03:39;;;;;;;10.45;2.17;;;6.70;99.90;;;;;;4951311;29;20147;-55
2021/12/18 03:24:43;;;;;;;6.03;2.55;;;6.60;99.90;;;;;;4935262;29;20933;-58
2021/12/18 03:27:09;;;;;;;5.93;2.50;;;6.60;99.90;;;;;;4949496;29;20502;-58
2021/12/18 03:29:35;;;;;;;6.88;2.90;;;6.60;99.90;;;;;;4918198;29;20058;-56
2021/12/18 03:32:01;;;;;;;9.18;3.10;;;6.60;99.90;;;;;;4951260;28;20047;-57
2021/12/18 03:34:27;;;;;;;8.20;3.15;;;6.60;99.90;;;;;;4964551;28;20047;-57
2021/12/18 03:36:54;;;;;;;7.43;3.28;;;6.60;99.90;;;;;;4951333;28;20514;-57
2021/12/18 03:39:20;;;;;;;6.60;2.58;;;6.60;99.90;;;;;;4950431;29;20089;-57
2021/12/18 03:41:46;;;;;;;9.95;2.78;;;6.60;99.90;;;;;;4932895;29;20379;-57
2021/12/18 03:44:12;;;;;;;6.03;2.00;;;6.60;99.90;;;;;;4951206;28;20047;-57
2021/12/18 03:46:38;;;;;;;6.40;2.50;;;6.60;99.90;;;;;;4949869;29;20050;-58
2021/12/18 03:49:05;;;;;;;5.40;2.03;;;6.60;99.90;;;;;;4933489;29;20399;-57
2021/12/18 03:51:31;;;;;;;5.97;2.40;;;6.60;99.90;;;;;;4963916;28;20545;-57
2021/12/18 03:53:57;;;;;;;4.10;1.98;;;6.60;99.90;;;;;;4949865;29;20047;-56
2021/12/18 03:56:23;;;;;;;6.70;2.00;;;6.50;99.90;;;;;;4946321;29;20055;-56
2021/12/18 03:58:49;;;;;;;5.40;2.05;;;6.50;99.90;;;;;;4950678;28;20054;-57
2021/12/18 04:01:18;;;;;;;4.38;1.85;;;6.50;99.90;;;;;;4949509;29;20047;-57
2021/12/18 04:03:44;;;;;;;5.13;2.53;;;6.50;99.90;;;;;;4933727;29;20550;-57
2021/12/18 04:06:10;;;;;;;6.15;2.22;;;6.50;99.90;;;;;;4933459;29;20058;-58
2021/12/18 04:08:37;;;;;;;6.45;2.33;;;6.50;99.90;;;;;;4950086;29;20087;-58
2021/12/18 04:11:03;;;;;;;5.68;1.75;;;6.50;99.90;;;;;;4950360;28;20060;-56
2021/12/18 04:13:30;;;;;;;5.97;1.95;;;6.50;99.90;;;;;;4948931;28;20051;-58
2021/12/18 04:15:56;;;;;;;5.65;2.35;;;6.40;99.90;;;;;;4949246;29;20047;-57
2021/12/18 04:18:22;;;;;;;6.35;2.30;;;6.40;99.90;;;;;;4949061;29;20058;-57
2021/12/18 04:20:49;;;;;;;6.50;2.13;;;6.40;99.90;;;;;;4949824;28;20051;-57
2021/12/18 04:23:15;;;;;;;7.80;2.50;;;6.40;99.90;;;;;;4949299;29;20062;-57
2021/12/18 04:25:41;;;;;;;8.18;2.42;;;6.40;99.90;;;;;;4949945;29;20079;-56
2021/12/18 04:28:07;;;;;;;5.35;1.70;;;6.40;99.90;;;;;;4933953;29;20076;-56
2021/12/18 04:30:34;;;;;;;6.43;2.25;;;6.40;99.90;;;;;;4948058;29;20051;-57
2021/12/18 04:33:00;;;;;;;6.82;2.28;;;6.40;99.90;;;;;;4948260;28;20391;-57
2021/12/18 04:35:30;;;;;;;7.18;2.08;;;6.40;99.90;;;;;;4945771;28;20043;-58
2021/12/18 04:37:56;;;;;;;9.93;2.40;;;6.30;99.90;;;;;;4950308;28;20439;-57
2021/12/18 04:40:25;;;;;;;7.53;2.05;;;6.30;99.90;;;;;;4964511;28;20468;-57
2021/12/18 04:42:56;;;;;;;14.57;2.28;;;6.40;99.90;;;;;;4949258;29;20059;-57
2021/12/18 04:45:23;;;;;;;13.73;2.22;;;6.40;99.90;;;;;;4949769;28;20078;-58
2021/12/18 04:47:49;;;;;;;7.82;2.40;;;6.40;99.90;;;;;;4947142;28;20144;-57
2021/12/18 04:50:15;;;;;;;11.38;2.28;;;6.40;99.90;;;;;;4948332;29;20130;-57
2021/12/18 04:52:42;;;;;;;8.98;2.70;;;6.40;99.90;;;;;;4948516;28;20055;-57
2021/12/18 04:55:08;;;;;;;7.80;2.70;;;6.40;99.90;;;;;;4965051;28;20054;-56
2021/12/18 04:57:34;;;;;;;8.50;2.25;;;6.40;99.90;;;;;;4950768;28;20051;-57
2021/12/18 05:00:02;;;;;;;5.80;2.22;;;6.40;99.90;;;;;;4931748;29;20066;-57
2021/12/18 05:02:41;;;;;;;6.50;1.95;;;6.40;99.90;;;;;;4949215;28;20051;-56
2021/12/18 05:05:13;;;;;;;8.73;2.42;;;6.40;99.90;;;;;;4964689;28;20051;-57
2021/12/18 05:07:41;;;;;;;10.95;2.15;;;6.40;99.90;;;;;;4947515;29;20149;-58
2021/12/18 05:10:11;;;;;;;6.47;1.88;;;6.40;99.90;;;;;;4933326;29;20061;-57
2021/12/18 05:12:39;;;;;;;6.15;2.05;;;6.40;99.90;;;;;;4948903;28;20125;-58
2021/12/18 05:15:06;;;;;;;5.80;1.90;;;6.40;99.90;;;;;;4963311;28;20051;-58
2021/12/18 05:17:32;;;;;;;5.40;1.88;;;6.40;99.90;;;;;;4950303;28;20054;-57
2021/12/18 05:19:58;;;;;;;9.68;2.15;;;6.50;99.90;;;;;;4946719;28;20078;-57
2021/12/18 05:22:24;;;;;;;9.48;2.15;;;6.40;99.90;;;;;;4964010;28;20051;-57
2021/12/18 05:24:50;;;;;;;8.50;2.65;;;6.40;99.90;;;;;;4950484;28;20050;-57
2021/12/18 05:27:16;;;;;;;8.82;2.65;;;6.40;99.90;;;;;;4952722;28;20039;-57
2021/12/18 05:29:42;;;;;;;9.43;2.78;;;6.40;99.90;;;;;;4950959;29;20110;-57
2021/12/18 05:32:09;;;;;;;14.57;2.30;;;6.40;99.90;;;;;;4934571;29;20497;-57
2021/12/18 05:34:39;;;;;;;11.48;2.65;;;6.40;99.90;;;;;;4952022;28;20155;-61
2021/12/18 05:37:17;;;;;;;20.17;2.67;;;6.40;99.90;;;;;;4951760;29;20117;-61
2021/12/18 05:39:44;;;;;;;9.55;2.83;;;6.40;99.90;;;;;;4953065;28;20057;-61
2021/12/18 05:42:11;;;;;;;13.48;2.78;;;6.30;99.90;;;;;;4954452;29;20431;-61
2021/12/18 05:44:37;;;;;;;12.23;2.80;;;6.40;99.90;;;;;;4953536;28;20055;-61
2021/12/18 05:47:04;;;;;;;11.48;2.67;;;6.40;99.90;;;;;;4937137;29;20051;-61
2021/12/18 05:49:30;;;;;;;12.20;2.78;;;6.40;99.90;;;;;;4968853;28;20101;-61
2021/12/18 05:51:56;;;;;;;10.07;2.30;;;6.40;99.90;;;;;;4953156;28;20502;-61
2021/12/18 05:54:23;;;;;;;11.68;3.20;;;6.40;99.90;;;;;;4954573;28;20107;-61
2021/12/18 05:56:49;;;;;;;10.23;2.83;;;6.40;99.90;;;;;;4951986;29;20406;-61
2021/12/18 05:59:16;;;;;;;12.35;3.00;;;6.40;99.90;;;;;;4953815;28;20074;-61
2021/12/18 06:01:42;;;;;;;12.18;3.22;;;6.40;99.90;;;;;;4968593;28;20506;-61
2021/12/18 06:04:09;;;;;;;13.18;3.28;;;6.40;99.90;;;;;;4953417;28;20062;-61
2021/12/18 06:06:35;;;;;;;12.70;3.35;;;6.50;99.90;;;;;;4951855;28;20051;-61
2021/12/18 06:09:02;;;;;;;11.07;3.40;;;6.50;99.90;;;;;;4954412;28;20418;-61
2021/12/18 06:11:31;;;;;;;14.02;3.47;;;6.50;99.90;;;;;;4950373;28;20086;-61
2021/12/18 06:13:57;;;;;;;17.23;3.78;;;6.50;99.90;;;;;;4953012;28;20053;-61
2021/12/18 06:16:23;;;;;;;10.43;3.17;;;6.50;99.90;;;;;;4952923;28;20055;-61
2021/12/18 06:18:50;;;;;;;10.93;3.42;;;6.50;99.90;;;;;;4953472;28;20506;-61
2021/12/18 06:21:18;;;;;;;12.13;3.42;;;6.50;99.90;;;;;;4968220;28;20040;-61
2021/12/18 06:23:52;;;;;;;17.33;3.75;;;6.50;99.90;;;;;;4936147;29;20069;-61
2021/12/18 06:26:20;;;;;;;14.40;3.97;;;6.50;99.90;;;;;;4966672;28;20043;-61
2021/12/18 06:28:47;;;;;;;11.38;3.72;;;6.60;99.90;;;;;;4950826;28;20051;-61
2021/12/18 06:31:13;;;;;;;13.85;4.03;;;6.50;99.90;;;;;;4936052;29;20126;-61
2021/12/18 06:33:39;;;;;;;16.55;4.68;;;6.60;99.90;;;;;;4935639;29;20087;-61
2021/12/18 06:36:05;;;;;;;11.82;4.18;;;6.60;99.90;;;;;;4952074;28;20134;-61
2021/12/18 06:38:31;;;;;;;12.70;4.05;;;6.60;99.90;;;;;;4951396;28;20406;-61
2021/12/18 06:40:57;;;;;;;14.48;4.15;;;6.60;99.90;;;;;;4950989;28;20078;-61
2021/12/18 06:43:23;;;;;;;11.55;3.95;;;6.60;99.90;;;;;;4934875;29;20043;-61
2021/12/18 06:45:50;;;;;;;12.95;4.20;;;6.60;99.90;;;;;;4951138;29;20086;-61
2021/12/18 06:48:16;;;;;;;11.85;4.05;;;6.70;99.90;;;;;;4950706;29;20047;-61
2021/12/18 06:50:42;;;;;;;15.10;4.40;;;6.70;99.90;;;;;;4944934;29;20043;-56
2021/12/18 06:53:08;;;;;;;15.38;4.72;;;6.70;99.90;;;;;;4966234;28;20047;-54
2021/12/18 06:55:34;;;;;;;13.45;4.80;;;6.70;99.90;;;;;;4951632;29;20062;-56
2021/12/18 06:58:01;;;;;;;14.65;4.57;;;6.70;99.90;;;;;;4953210;28;20058;-53
2021/12/18 07:00:28;;;;;;;15.00;5.38;;;6.70;99.90;;;;;;4950951;28;20062;-51
2021/12/18 07:02:54;;;;;;;14.52;5.13;;;6.80;99.90;;;;;;4968700;28;20186;-54
2021/12/18 07:05:20;;;;;;;16.73;5.45;;;6.80;99.90;;;;;;4951987;28;20074;-52
2021/12/18 07:07:46;;;;;;;16.55;5.53;;;6.70;99.90;;;;;;4936679;29;20529;-50
2021/12/18 07:10:14;;;;;;;17.35;5.70;;;6.80;99.90;;;;;;4954343;28;20394;-52
2021/12/18 07:12:41;;;;;;;18.73;5.50;;;6.80;99.90;;;;;;4952056;28;20546;-55
2021/12/18 07:15:09;;;;;;;18.33;5.95;;;6.80;99.90;;;;;;4947585;28;20079;-55
2021/12/18 07:17:35;;;;;;;13.43;4.93;;;6.80;99.90;;;;;;4963175;28;20146;-56
2021/12/18 07:20:02;;;;;;;20.80;4.68;;;6.80;99.90;;;;;;4949266;28;20051;-56
2021/12/18 07:22:28;;;;;;;25.92;7.05;;;6.80;99.90;;;;;;4951466;28;20047;-52
2021/12/18 07:24:54;;;;;;;19.98;6.47;;;6.80;99.90;;;;;;4950591;28;20227;-51
2021/12/18 07:27:20;;;;;;;26.35;6.57;;;6.80;99.90;;;;;;4949454;28;20047;-61
2021/12/18 07:29:47;;;;;;;33.80;13.55;;;6.80;99.90;;;;;;4949970;28;20574;-59
2021/12/18 07:32:13;;;;;;;27.65;9.27;;;6.90;99.90;;;;;;4951097;28;20043;-62
2021/12/18 07:34:39;;;;;;;21.75;8.77;;;7.00;99.90;;;;;;4950352;28;20453;-63
2021/12/18 07:37:05;;;;;;;23.77;7.00;;;7.00;99.90;;;;;;4934274;29;20062;-62
2021/12/18 07:39:31;;;;;;;27.35;7.22;;;7.00;99.90;;;;;;4948468;28;20055;-61
2021/12/18 07:41:57;;;;;;;23.48;6.70;;;7.00;99.90;;;;;;4964950;28;20074;-60
2021/12/18 07:44:24;;;;;;;25.85;8.85;;;7.00;99.90;;;;;;4949802;28;20525;-59
2021/12/18 07:46:50;;;;;;;22.55;6.28;;;7.00;99.90;;;;;;4950410;29;20635;-60
2021/12/18 07:49:16;;;;;;;20.10;7.10;;;7.00;99.90;;;;;;4949496;28;20178;-61
2021/12/18 07:51:42;;;;;;;26.00;6.70;;;7.00;99.90;;;;;;4949850;29;20063;-58
2021/12/18 07:54:09;;;;;;;40.50;7.45;;;7.00;99.90;;;;;;4934962;29;20058;-60
2021/12/18 07:56:35;;;;;;;37.80;7.22;;;7.00;99.90;;;;;;4951436;28;20153;-61
2021/12/18 07:59:02;;;;;;;28.13;6.38;;;6.90;99.90;;;;;;4965578;28;20466;-61
2021/12/18 08:01:28;;;;;;;31.08;7.55;;;6.90;99.90;;;;;;4948474;28;20447;-60
2021/12/18 08:03:55;;;;;;;34.53;7.40;;;6.90;99.90;;;;;;4948749;29;20053;-60
2021/12/18 08:06:21;;;;;;;31.27;7.63;;;6.90;99.90;;;;;;4945382;28;20470;-60
2021/12/18 08:08:48;;;;;;;27.33;7.45;;;6.90;99.90;;;;;;4908231;29;20051;-60
2021/12/18 08:11:15;;;;;;;29.02;7.22;;;6.90;99.90;;;;;;4942897;29;20073;-61
2021/12/18 08:13:41;;;;;;;30.67;8.23;;;6.90;99.90;;;;;;4949549;28;20054;-61
2021/12/18 08:16:07;;;;;;;25.95;7.07;;;6.90;99.90;;;;;;4950314;28;20554;-58
2021/12/18 08:18:33;;;;;;;29.80;7.97;;;7.00;99.90;;;;;;4951617;28;20494;-58
2021/12/18 08:21:00;;;;;;;25.52;8.05;;;7.00;99.90;;;;;;4917612;29;20066;-58
2021/12/18 08:23:26;;;;;;;17.90;7.20;;;7.00;99.90;;;;;;4948235;29;20074;-57
2021/12/18 08:25:52;;;;;;;23.60;8.00;;;7.00;99.90;;;;;;4948198;28;20058;-57
2021/12/18 08:28:19;;;;;;;22.05;7.78;;;7.10;99.90;;;;;;4950862;29;20051;-57
2021/12/18 08:30:45;;;;;;;27.90;8.50;;;7.10;99.90;;;;;;4940419;29;20116;-57
2021/12/18 08:33:11;;;;;;;28.50;9.27;;;7.20;99.90;;;;;;4945335;29;20064;-58
2021/12/18 08:35:37;;;;;;;23.10;9.15;;;7.20;99.90;;;;;;4950962;28;20058;-58
2021/12/18 08:38:05;;;;;;;29.83;10.13;;;7.20;99.90;;;;;;4950115;29;20141;-58
2021/12/18 08:40:33;;;;;;;25.55;8.93;;;7.20;99.90;;;;;;4934139;29;20163;-58
2021/12/18 08:42:59;;;;;;;23.23;9.48;;;7.30;99.90;;;;;;4932954;29;20226;-57
2021/12/18 08:45:25;;;;;;;26.23;8.77;;;7.30;99.90;;;;;;4932669;29;20062;-58
2021/12/18 08:47:52;;;;;;;31.73;10.40;;;7.30;99.90;;;;;;4950010;28;20055;-58
2021/12/18 08:50:19;;;;;;;22.23;8.27;;;7.30;99.90;;;;;;4948861;29;20083;-56
2021/12/18 08:52:46;;;;;;;24.63;8.82;;;7.40;99.90;;;;;;4950087;28;20047;-55
2021/12/18 08:55:15;;;;;;;20.08;7.60;;;7.40;99.90;;;;;;4947759;29;20062;-56
2021/12/18 08:57:41;;;;;;;23.85;8.57;;;7.40;99.90;;;;;;4947687;29;20058;-57
2021/12/18 09:00:10;;;;;;;22.65;7.68;;;7.50;99.90;;;;;;4948713;29;20485;-57
2021/12/18 09:02:40;;;;;;;26.63;8.95;;;7.50;99.90;;;;;;4933410;29;20411;-57
2021/12/18 09:05:08;;;;;;;26.13;8.45;;;7.50;99.90;;;;;;4948965;29;20125;-54
2021/12/18 09:07:35;;;;;;;25.25;8.68;;;7.50;99.90;;;;;;4948119;28;20062;-56
2021/12/18 09:10:02;;;;;;;22.17;8.50;;;7.50;99.90;;;;;;4950702;28;20145;-56
2021/12/18 09:12:28;;;;;;;25.20;8.10;;;7.60;99.90;;;;;;4947813;29;20051;-53
2021/12/18 09:14:54;;;;;;;19.27;8.23;;;7.60;99.90;;;;;;4946943;29;20235;-56
2021/12/18 09:17:20;;;;;;;23.38;9.13;;;7.60;99.90;;;;;;4949689;28;20517;-56
2021/12/18 09:19:47;;;;;;;21.60;8.57;;;7.60;99.90;;;;;;4948554;29;20410;-57
2021/12/18 09:22:13;;;;;;;21.50;7.97;;;7.70;99.90;;;;;;4949174;29;20126;-58
2021/12/18 09:24:39;;;;;;;22.50;9.35;;;7.70;99.90;;;;;;4961091;28;20087;-58
2021/12/18 09:27:06;;;;;;;25.02;9.57;;;7.70;99.90;;;;;;4950950;28;20047;-58
2021/12/18 09:29:33;;;;;;;22.73;9.30;;;7.70;99.90;;;;;;4933197;29;20043;-59
2021/12/18 09:31:59;;;;;;;20.58;8.80;;;7.80;99.90;;;;;;4948253;29;20058;-59
2021/12/18 09:34:28;;;;;;;24.00;9.55;;;7.80;99.90;;;;;;4964842;28;20155;-59
2021/12/18 09:36:54;;;;;;;21.33;8.85;;;7.80;99.90;;;;;;4949025;29;20511;-58
2021/12/18 09:39:20;;;;;;;27.42;9.35;;;7.80;99.90;;;;;;4949631;28;20047;-59
2021/12/18 09:41:49;;;;;;;22.88;9.65;;;7.90;99.90;;;;;;4948540;29;20067;-58
2021/12/18 09:44:22;;;;;;;19.13;8.90;;;7.90;99.90;;;;;;4932263;29;20051;-57
2021/12/18 09:46:48;;;;;;;19.65;9.20;;;7.90;99.90;;;;;;4948991;28;20106;-55
2021/12/18 09:49:15;;;;;;;72.28;49.58;;;7.90;99.90;;;;;;4948405;29;20051;-58
2021/12/18 09:51:42;;;;;;;22.70;13.98;;;7.90;99.90;;;;;;4949833;28;20062;-58
2021/12/18 09:54:09;;;;;;;17.30;8.32;;;8.00;99.90;;;;;;4964640;28;20094;-58
2021/12/18 09:56:35;;;;;;;20.15;11.35;;;8.00;99.90;;;;;;4948455;29;20054;-58
2021/12/18 09:59:01;;;;;;;14.52;6.70;;;8.10;99.90;;;;;;4950376;28;20422;-57
2021/12/18 10:01:27;;;;;;;13.57;6.82;;;8.20;99.90;;;;;;4950220;28;20079;-58
2021/12/18 10:03:56;;;;;;;12.98;5.80;;;8.30;99.90;;;;;;4932997;29;20398;-58
2021/12/18 10:06:41;;;;;;;11.18;5.20;;;8.30;99.90;;;;;;4932482;29;20362;-57
2021/12/18 10:09:12;;;;;;;10.52;5.10;;;8.30;99.90;;;;;;4949583;28;20091;-58
2021/12/18 10:11:56;;;;;;;9.40;4.25;;;8.40;99.90;;;;;;4951278;28;20114;-58
2021/12/18 10:14:33;;;;;;;18.08;8.57;;;8.40;99.90;;;;;;4952937;28;20560;-58
2021/12/18 10:16:59;;;;;;;11.73;4.50;;;8.50;99.90;;;;;;4951946;29;20119;-58
2021/12/18 10:19:35;;;;;;;11.02;4.30;;;8.50;99.90;;;;;;4936137;29;20054;-58
2021/12/18 10:22:05;;;;;;;8.40;3.55;;;8.50;99.90;;;;;;4936446;29;20047;-56
2021/12/18 10:24:33;;;;;;;9.65;5.63;;;8.60;99.90;;;;;;4952001;29;20051;-59
2021/12/18 10:27:01;;;;;;;9.27;4.28;;;8.60;99.90;;;;;;4951792;29;20047;-58
2021/12/18 10:29:34;;;;;;;12.30;7.18;;;8.70;99.90;;;;;;4953434;28;20066;-59
2021/12/18 10:32:12;;;;;;;18.65;11.98;;;8.70;99.90;;;;;;4952257;29;20055;-58
2021/12/18 10:34:50;;;;;;;13.02;3.75;;;8.70;99.90;;;;;;4935791;29;20055;-58
2021/12/18 10:37:20;;;;;;;8.55;3.88;;;8.80;99.90;;;;;;4952839;28;20054;-58
2021/12/18 10:39:56;;;;;;;10.27;4.93;;;8.80;99.90;;;;;;4953062;28;20458;-59
2021/12/18 10:42:30;;;;;;;9.30;3.50;;;8.90;99.90;;;;;;4953117;28;20134;-59
2021/12/18 10:44:58;;;;;;;10.05;3.22;;;8.90;99.90;;;;;;4950311;29;20051;-59
2021/12/18 10:47:24;;;;;;;11.27;3.45;;;8.90;99.90;;;;;;4952039;28;20081;-58
2021/12/18 10:49:50;;;;;;;11.13;3.50;;;8.90;99.90;;;;;;4949687;29;20130;-58
2021/12/18 10:52:16;;;;;;;11.85;3.78;;;9.00;99.90;;;;;;4951156;29;20047;-58
2021/12/18 10:54:43;;;;;;;11.60;4.60;;;9.00;99.90;;;;;;4952466;28;20520;-59
2021/12/18 10:57:21;;;;;;;11.98;5.18;;;9.00;99.90;;;;;;4951042;29;20055;-59
2021/12/18 10:59:51;;;;;;;15.00;6.18;;;9.00;99.90;;;;;;4950579;28;20439;-59
2021/12/18 11:02:19;;;;;;;15.85;5.82;;;8.90;99.90;;;;;;4952125;28;20046;-59
2021/12/18 11:04:45;;;;;;;12.88;6.20;;;8.90;99.90;;;;;;4950853;29;20055;-59
2021/12/18 11:07:28;;;;;;;9.15;5.55;;;8.90;99.90;;;;;;4951375;29;20074;-59
2021/12/18 11:10:14;;;;;;;10.32;5.22;;;8.90;99.90;;;;;;4951334;28;20055;-59
2021/12/18 11:15:25;;;;;;;11.70;5.63;;;8.90;99.90;;;;;;4952430;29;20043;-59
2021/12/18 11:17:51;;;;;;;9.30;4.90;;;8.90;99.90;;;;;;4935840;28;20410;-58
2021/12/18 11:20:18;;;;;;;7.95;4.93;;;8.90;99.90;;;;;;4953290;28;20519;-59
2021/12/18 11:22:45;;;;;;;9.85;5.53;;;8.90;99.90;;;;;;4951643;28;20135;-59
2021/12/18 11:25:12;;;;;;;8.18;4.70;;;9.00;99.90;;;;;;4935487;29;20458;-59
2021/12/18 11:27:39;;;;;;;8.10;4.30;;;8.90;99.90;;;;;;4951567;29;20395;-60
2021/12/18 11:30:11;;;;;;;9.65;4.55;;;9.00;99.90;;;;;;4934999;29;20122;-58
2021/12/18 11:32:40;;;;;;;;;;;9.00;99.90;;;;;;4952593;28;20047;-59
2021/12/18 11:35:10;;;;;;;11.45;4.25;;;8.90;99.90;;;;;;4934904;29;19927;-59
2021/12/18 11:38:00;;;;;;;16.17;8.18;;;9.00;99.90;;;;;;4934825;29;20058;-59
2021/12/18 11:40:33;;;;;;;8.73;4.75;;;9.00;99.90;;;;;;4952436;28;20457;-57
2021/12/18 11:42:59;;;;;;;48.25;38.80;;;9.10;99.90;;;;;;4949061;28;20154;-57
2021/12/18 11:45:34;;;;;;;15.15;9.60;;;9.10;99.90;;;;;;4933320;29;20098;-57
2021/12/18 11:48:02;;;;;;;8.52;4.60;;;9.10;99.90;;;;;;4917293;29;20090;-55
2021/12/18 11:50:37;;;;;;;8.32;5.07;;;9.10;99.90;;;;;;4948938;29;21127;-60
2021/12/18 11:53:10;;;;;;;12.65;6.72;;;9.10;99.90;;;;;;4933257;29;20474;-60
2021/12/18 11:55:48;;;;;;;12.13;4.70;;;9.20;99.90;;;;;;4948825;29;20066;-58
2021/12/18 11:58:19;;;;;;;9.90;4.85;;;9.20;99.90;;;;;;4917279;29;20138;-57
2021/12/18 12:00:51;;;;;;;8.43;5.13;;;9.20;99.90;;;;;;4939591;29;20094;-59
2021/12/18 12:03:49;;;;;;;8.13;4.88;;;9.10;99.90;;;;;;4944294;29;20062;-57
2021/12/18 12:06:28;;;;;;;12.57;5.95;;;9.10;99.90;;;;;;4959103;28;20051;-60
2021/12/18 12:09:27;;;;;;;11.00;4.80;;;9.10;99.90;;;;;;4949973;29;20051;-56
2021/12/18 12:12:05;;;;;;;6.93;4.00;;;9.10;99.90;;;;;;4948778;29;20055;-59
2021/12/18 12:14:37;;;;;;;9.25;4.68;;;9.10;99.90;;;;;;4950121;28;20055;-57
2021/12/18 12:17:15;;;;;;;12.90;5.75;;;9.20;99.90;;;;;;4949625;29;20487;-56
2021/12/18 12:19:48;;;;;;;8.98;4.00;;;9.20;99.90;;;;;;4949768;29;20047;-59
2021/12/18 12:22:35;;;;;;;9.88;4.57;;;9.10;99.90;;;;;;4949920;29;20054;-59
2021/12/18 12:25:03;;;;;;;6.78;4.43;;;9.20;99.90;;;;;;4950294;29;20409;-56
2021/12/18 12:27:58;;;;;;;9.80;4.75;;;9.20;99.90;;;;;;4934093;29;20074;-54
2021/12/18 12:30:37;;;;;;;8.73;5.93;;;9.20;99.90;;;;;;4949849;29;20043;-60
2021/12/18 12:33:10;;;;;;;8.98;5.50;;;9.20;99.90;;;;;;4950556;29;20402;-64
2021/12/18 12:36:02;;;;;;;8.80;5.00;;;9.20;99.90;;;;;;4945981;28;20418;-61
2021/12/18 12:38:32;;;;;;;8.55;5.10;;;9.20;99.90;;;;;;4963235;28;20055;-61
2021/12/18 12:41:26;;;;;;;9.40;5.65;;;9.20;99.90;;;;;;4940265;29;20571;-57
2021/12/18 12:43:57;;;;;;;11.52;5.60;;;9.20;99.90;;;;;;4945623;29;20088;-56
2021/12/18 12:46:24;;;;;;;10.98;5.97;;;9.20;99.90;;;;;;4930621;29;20395;-55
2021/12/18 12:49:04;;;;;;;10.68;5.68;;;9.20;99.90;;;;;;4949455;29;20047;-60
2021/12/18 12:52:04;;;;;;;11.23;6.00;;;9.10;99.90;;;;;;4949416;29;20054;-56
2021/12/18 12:54:59;;;;;;;8.40;5.20;;;9.10;99.90;;;;;;4928172;28;20056;-54
2021/12/18 12:57:27;;;;;;;9.02;4.97;;;9.10;99.90;;;;;;4903646;29;20114;-53
2021/12/18 13:00:05;;;;;;;9.75;4.18;;;9.00;99.90;;;;;;4932599;28;20394;-56
2021/12/18 13:02:35;;;;;;;20.25;13.10;;;9.00;99.90;;;;;;4943186;29;20061;-55
2021/12/18 13:05:06;;;;;;;13.00;7.75;;;9.00;99.90;;;;;;4965154;28;20121;-58
2021/12/18 13:07:33;;;;;;;7.97;3.65;;;9.00;99.90;;;;;;4977961;28;20406;-59
2021/12/18 13:09:59;;;;;;;6.82;3.40;;;9.00;99.90;;;;;;4928373;28;20062;-59
2021/12/18 13:12:25;;;;;;;11.32;3.95;;;9.10;99.90;;;;;;4949051;28;20055;-59
2021/12/18 13:14:55;;;;;;;11.35;4.13;;;9.10;99.90;;;;;;4937181;28;20055;-56
2021/12/18 13:17:30;;;;;;;12.00;3.65;;;9.10;99.90;;;;;;4943309;29;20070;-59
2021/12/18 13:19:57;;;;;;;11.68;3.88;;;9.10;99.90;;;;;;4915725;28;20045;-60
2021/12/18 13:22:29;;;;;;;11.32;4.05;;;9.10;99.90;;;;;;4954622;28;20058;-59
2021/12/18 13:25:09;;;;;;;11.02;4.20;;;9.10;99.90;;;;;;4938114;28;20051;-60
2021/12/18 13:27:39;;;;;;;10.20;5.18;;;9.20;99.90;;;;;;4932719;29;20051;-60
2021/12/18 13:30:22;;;;;;;9.55;3.83;;;9.20;99.90;;;;;;4951522;28;20126;-60
2021/12/18 13:32:51;;;;;;;15.80;4.43;;;9.10;99.90;;;;;;4950687;28;20058;-56
2021/12/18 13:35:18;;;;;;;11.02;4.07;;;9.10;99.90;;;;;;4947699;28;20058;-56
2021/12/18 13:38:06;;;;;;;8.70;4.35;;;9.10;99.90;;;;;;4946076;29;20051;-60
2021/12/18 13:40:44;;;;;;;11.02;4.40;;;9.10;99.90;;;;;;4945578;29;20502;-57
2021/12/18 13:43:17;;;;;;;10.93;4.60;;;9.10;99.90;;;;;;4948225;29;20058;-57
2021/12/18 13:46:13;;;;;;;11.45;5.47;;;9.10;99.90;;;;;;4916942;29;20058;-58